sensor_id;sensor_type;location;lat;lon;timestamp;pressure;altitude;pressure_sealevel;temperature;humidity
52291;BME280;39663;45.432;28.050;2022-09-09T00:07:09;101354.25;;;26.61;33.94
52291;BME280;39663;45.432;28.050;2022-09-09T00:07:47;101354.87;;;26.40;33.96
52291;BME280;39663;45.432;28.050;2022-09-09T00:08:21;101354.01;;;26.05;34.11
52291;BME280;39663;45.432;28.050;2022-09-09T00:09:02;101355.31;;;26.02;34.14
52291;BME280;39663;45.432;28.050;2022-09-09T00:09:40;101352.74;;;26.26;34.15
52291;BME280;39663;45.432;28.050;2022-09-09T00:10:22;101354.14;;;26.15;34.28
52291;BME280;39663;45.432;28.050;2022-09-09T00:11:01;101354.25;;;25.95;34.24
52291;BME280;39663;45.432;28.050;2022-09-09T00:11:40;101354.42;;;25.89;34.40
52291;BME280;39663;45.432;28.050;2022-09-09T00:12:17;101352.97;;;25.99;34.22
52291;BME280;39663;45.432;28.050;2022-09-09T00:12:57;101353.85;;;26.12;34.16
52291;BME280;39663;45.432;28.050;2022-09-09T00:13:33;101353.45;;;26.07;34.26
52291;BME280;39663;45.432;28.050;2022-09-09T00:14:12;101353.76;;;26.08;34.24
52291;BME280;39663;45.432;28.050;2022-09-09T00:14:50;101354.98;;;26.01;34.19
52291;BME280;39663;45.432;28.050;2022-09-09T00:15:24;101354.13;;;26.09;34.25
52291;BME280;39663;45.432;28.050;2022-09-09T00:16:01;101355.01;;;26.16;34.17
52291;BME280;39663;45.432;28.050;2022-09-09T00:16:36;101353.53;;;26.18;34.05
52291;BME280;39663;45.432;28.050;2022-09-09T00:17:16;101356.46;;;26.24;34.10
52291;BME280;39663;45.432;28.050;2022-09-09T00:17:58;101353.17;;;25.90;34.16
52291;BME280;39663;45.432;28.050;2022-09-09T00:18:45;101354.03;;;26.13;34.07
52291;BME280;39663;45.432;28.050;2022-09-09T00:19:23;101354.12;;;26.04;34.12
52291;BME280;39663;45.432;28.050;2022-09-09T00:20:01;101354.72;;;26.09;34.17
52291;BME280;39663;45.432;28.050;2022-09-09T00:20:38;101351.86;;;26.10;34.10
52291;BME280;39663;45.432;28.050;2022-09-09T00:21:15;101353.75;;;25.92;34.29
52291;BME280;39663;45.432;28.050;2022-09-09T00:21:52;101353.92;;;25.85;34.39
52291;BME280;39663;45.432;28.050;2022-09-09T00:22:27;101354.18;;;26.04;34.22
52291;BME280;39663;45.432;28.050;2022-09-09T00:23:05;101353.02;;;26.04;34.25
52291;BME280;39663;45.432;28.050;2022-09-09T00:23:46;101355.14;;;25.97;34.25
52291;BME280;39663;45.432;28.050;2022-09-09T00:24:26;101356.46;;;25.99;34.22
52291;BME280;39663;45.432;28.050;2022-09-09T00:25:08;101357.54;;;26.02;34.22
52291;BME280;39663;45.432;28.050;2022-09-09T00:25:49;101358.87;;;26.02;34.19
52291;BME280;39663;45.432;28.050;2022-09-09T00:26:32;101359.40;;;26.02;34.22
52291;BME280;39663;45.432;28.050;2022-09-09T00:27:12;101361.40;;;26.03;34.12
52291;BME280;39663;45.432;28.050;2022-09-09T00:27:48;101361.42;;;25.99;34.24
52291;BME280;39663;45.432;28.050;2022-09-09T00:28:24;101362.74;;;25.82;34.45
52291;BME280;39663;45.432;28.050;2022-09-09T00:29:03;101362.91;;;25.88;34.45
52291;BME280;39663;45.432;28.050;2022-09-09T00:29:41;101361.44;;;25.90;34.33
52291;BME280;39663;45.432;28.050;2022-09-09T00:30:17;101360.61;;;26.11;34.36
52291;BME280;39663;45.432;28.050;2022-09-09T00:30:49;101362.49;;;25.88;34.37
52291;BME280;39663;45.432;28.050;2022-09-09T00:31:25;101362.34;;;25.88;34.34
52291;BME280;39663;45.432;28.050;2022-09-09T00:32:00;101360.07;;;26.12;34.11
52291;BME280;39663;45.432;28.050;2022-09-09T00:32:36;101361.16;;;26.08;34.07
52291;BME280;39663;45.432;28.050;2022-09-09T00:33:12;101362.08;;;26.12;34.00
52291;BME280;39663;45.432;28.050;2022-09-09T00:33:43;101362.07;;;26.20;33.88
52291;BME280;39663;45.432;28.050;2022-09-09T00:34:18;101359.50;;;26.15;33.95
52291;BME280;39663;45.432;28.050;2022-09-09T00:34:53;101360.42;;;26.05;34.06
52291;BME280;39663;45.432;28.050;2022-09-09T00:35:29;101359.63;;;26.39;33.90
52291;BME280;39663;45.432;28.050;2022-09-09T00:36:01;101360.90;;;26.19;33.82
52291;BME280;39663;45.432;28.050;2022-09-09T00:36:32;101359.59;;;26.13;33.89
52291;BME280;39663;45.432;28.050;2022-09-09T00:37:09;101358.68;;;26.06;33.98
52291;BME280;39663;45.432;28.050;2022-09-09T00:37:40;101360.58;;;26.11;33.87
52291;BME280;39663;45.432;28.050;2022-09-09T00:38:15;101358.01;;;26.08;33.90
52291;BME280;39663;45.432;28.050;2022-09-09T00:38:51;101359.16;;;25.90;34.20
52291;BME280;39663;45.432;28.050;2022-09-09T00:39:30;101356.95;;;26.26;34.11
52291;BME280;39663;45.432;28.050;2022-09-09T00:40:17;101358.60;;;26.12;34.17
52291;BME280;39663;45.432;28.050;2022-09-09T00:40:53;101356.80;;;26.07;33.93
52291;BME280;39663;45.432;28.050;2022-09-09T00:41:42;101357.94;;;26.12;33.90
52291;BME280;39663;45.432;28.050;2022-09-09T00:42:22;101358.49;;;26.19;33.86
52291;BME280;39663;45.432;28.050;2022-09-09T00:43:10;101356.55;;;26.31;33.76
52291;BME280;39663;45.432;28.050;2022-09-09T00:43:56;101356.10;;;26.21;33.64
52291;BME280;39663;45.432;28.050;2022-09-09T00:44:31;101357.24;;;26.32;33.70
52291;BME280;39663;45.432;28.050;2022-09-09T00:45:17;101355.23;;;26.06;33.97
52291;BME280;39663;45.432;28.050;2022-09-09T00:46:20;101356.28;;;26.39;33.80
52291;BME280;39663;45.432;28.050;2022-09-09T00:47:00;101356.66;;;26.10;33.87
52291;BME280;39663;45.432;28.050;2022-09-09T00:47:40;101355.73;;;26.17;33.86
52291;BME280;39663;45.432;28.050;2022-09-09T00:48:14;101355.03;;;26.27;33.70
52291;BME280;39663;45.432;28.050;2022-09-09T00:48:53;101351.12;;;26.34;33.61
52291;BME280;39663;45.432;28.050;2022-09-09T00:49:37;101348.60;;;26.48;33.45
52291;BME280;39663;45.432;28.050;2022-09-09T00:50:48;101348.85;;;26.38;33.51
52291;BME280;39663;45.432;28.050;2022-09-09T00:51:33;101351.81;;;26.15;33.80
52291;BME280;39663;45.432;28.050;2022-09-09T00:52:19;101354.15;;;25.82;34.15
52291;BME280;39663;45.432;28.050;2022-09-09T00:53:05;101354.24;;;25.79;34.04
52291;BME280;39663;45.432;28.050;2022-09-09T00:53:41;101353.28;;;26.01;33.98
52291;BME280;39663;45.432;28.050;2022-09-09T00:54:28;101353.27;;;26.02;33.94
52291;BME280;39663;45.432;28.050;2022-09-09T00:55:07;101350.28;;;26.07;33.83
52291;BME280;39663;45.432;28.050;2022-09-09T00:55:47;101349.88;;;26.09;33.70
52291;BME280;39663;45.432;28.050;2022-09-09T00:56:21;101345.34;;;26.31;33.64
52291;BME280;39663;45.432;28.050;2022-09-09T00:57:07;101348.16;;;26.11;33.89
52291;BME280;39663;45.432;28.050;2022-09-09T00:57:43;101349.00;;;25.97;34.13
52291;BME280;39663;45.432;28.050;2022-09-09T00:58:15;101346.95;;;26.00;34.06
52291;BME280;39663;45.432;28.050;2022-09-09T00:58:52;101346.26;;;25.99;34.03
52291;BME280;39663;45.432;28.050;2022-09-09T00:59:35;101348.43;;;25.73;34.09
52291;BME280;39663;45.432;28.050;2022-09-09T01:00:22;101345.66;;;26.22;34.00
52291;BME280;39663;45.432;28.050;2022-09-09T01:01:06;101345.76;;;26.10;33.91
52291;BME280;39663;45.432;28.050;2022-09-09T01:01:40;101342.35;;;26.20;33.75
52291;BME280;39663;45.432;28.050;2022-09-09T01:02:21;101342.42;;;26.30;33.87
52291;BME280;39663;45.432;28.050;2022-09-09T01:03:10;101342.51;;;26.10;33.86
52291;BME280;39663;45.432;28.050;2022-09-09T01:03:51;101341.66;;;26.07;33.86
52291;BME280;39663;45.432;28.050;2022-09-09T01:04:28;101337.14;;;26.30;33.61
52291;BME280;39663;45.432;28.050;2022-09-09T01:05:07;101342.13;;;26.13;33.78
52291;BME280;39663;45.432;28.050;2022-09-09T01:05:46;101339.75;;;26.01;33.92
52291;BME280;39663;45.432;28.050;2022-09-09T01:06:25;101341.05;;;26.09;33.93
52291;BME280;39663;45.432;28.050;2022-09-09T01:07:07;101339.46;;;26.15;33.80
52291;BME280;39663;45.432;28.050;2022-09-09T01:07:47;101340.10;;;25.92;34.06
52291;BME280;39663;45.432;28.050;2022-09-09T01:08:35;101340.48;;;26.10;34.06
52291;BME280;39663;45.432;28.050;2022-09-09T01:09:14;101341.27;;;25.97;34.04
52291;BME280;39663;45.432;28.050;2022-09-09T01:09:54;101339.92;;;25.78;34.32
52291;BME280;39663;45.432;28.050;2022-09-09T01:10:34;101340.81;;;25.76;34.29
52291;BME280;39663;45.432;28.050;2022-09-09T01:11:12;101339.14;;;25.91;34.07
52291;BME280;39663;45.432;28.050;2022-09-09T01:11:55;101337.92;;;26.19;34.00
52291;BME280;39663;45.432;28.050;2022-09-09T01:12:37;101337.72;;;25.97;33.89
52291;BME280;39663;45.432;28.050;2022-09-09T01:13:16;101337.32;;;26.03;33.80
52291;BME280;39663;45.432;28.050;2022-09-09T01:13:58;101336.90;;;26.12;33.75
52291;BME280;39663;45.432;28.050;2022-09-09T01:14:41;101340.72;;;26.02;33.88
52291;BME280;39663;45.432;28.050;2022-09-09T01:15:17;101339.17;;;25.88;34.03
52291;BME280;39663;45.432;28.050;2022-09-09T01:15:50;101337.82;;;25.71;34.05
52291;BME280;39663;45.432;28.050;2022-09-09T01:16:22;101341.08;;;25.87;34.06
52291;BME280;39663;45.432;28.050;2022-09-09T01:16:56;101339.82;;;25.90;33.97
52291;BME280;39663;45.432;28.050;2022-09-09T01:17:32;101337.76;;;25.92;33.91
52291;BME280;39663;45.432;28.050;2022-09-09T01:18:08;101337.72;;;26.09;33.79
52291;BME280;39663;45.432;28.050;2022-09-09T01:18:46;101335.89;;;26.09;33.69
52291;BME280;39663;45.432;28.050;2022-09-09T01:20:14;101336.49;;;26.05;33.83
52291;BME280;39663;45.432;28.050;2022-09-09T01:20:53;101333.59;;;25.96;33.82
52291;BME280;39663;45.432;28.050;2022-09-09T01:21:34;101333.83;;;25.82;34.02
52291;BME280;39663;45.432;28.050;2022-09-09T01:22:17;101330.53;;;26.03;33.68
52291;BME280;39663;45.432;28.050;2022-09-09T01:23:09;101334.10;;;25.98;33.74
52291;BME280;39663;45.432;28.050;2022-09-09T01:24:02;101332.89;;;26.09;33.62
52291;BME280;39663;45.432;28.050;2022-09-09T01:24:40;101332.67;;;25.89;33.76
52291;BME280;39663;45.432;28.050;2022-09-09T01:25:26;101333.98;;;26.06;33.65
52291;BME280;39663;45.432;28.050;2022-09-09T01:26:18;101331.00;;;25.96;33.58
52291;BME280;39663;45.432;28.050;2022-09-09T01:26:52;101332.80;;;26.03;33.50
52291;BME280;39663;45.432;28.050;2022-09-09T01:27:26;101331.81;;;25.82;33.53
52291;BME280;39663;45.432;28.050;2022-09-09T01:28:00;101333.12;;;26.06;33.36
52291;BME280;39663;45.432;28.050;2022-09-09T01:28:34;101334.85;;;25.87;33.60
52291;BME280;39663;45.432;28.050;2022-09-09T01:29:08;101333.13;;;25.99;33.52
52291;BME280;39663;45.432;28.050;2022-09-09T01:29:41;101330.96;;;26.12;33.44
52291;BME280;39663;45.432;28.050;2022-09-09T01:30:15;101329.69;;;25.95;33.47
52291;BME280;39663;45.432;28.050;2022-09-09T01:30:47;101331.03;;;25.95;33.61
52291;BME280;39663;45.432;28.050;2022-09-09T01:31:21;101331.69;;;26.07;33.48
52291;BME280;39663;45.432;28.050;2022-09-09T01:31:56;101328.86;;;25.89;33.51
52291;BME280;39663;45.432;28.050;2022-09-09T01:32:45;101331.18;;;26.00;33.35
52291;BME280;39663;45.432;28.050;2022-09-09T01:33:18;101331.36;;;26.32;33.32
52291;BME280;39663;45.432;28.050;2022-09-09T01:33:51;101332.13;;;25.82;33.44
52291;BME280;39663;45.432;28.050;2022-09-09T01:34:25;101330.91;;;25.75;33.52
52291;BME280;39663;45.432;28.050;2022-09-09T01:34:58;101329.67;;;25.84;33.52
52291;BME280;39663;45.432;28.050;2022-09-09T01:35:36;101328.57;;;25.80;33.55
52291;BME280;39663;45.432;28.050;2022-09-09T01:36:13;101330.55;;;25.92;33.44
52291;BME280;39663;45.432;28.050;2022-09-09T01:36:51;101328.16;;;25.75;33.61
52291;BME280;39663;45.432;28.050;2022-09-09T01:37:24;101330.45;;;25.89;33.42
52291;BME280;39663;45.432;28.050;2022-09-09T01:37:56;101331.94;;;25.98;33.28
52291;BME280;39663;45.432;28.050;2022-09-09T01:38:28;101323.96;;;26.36;33.28
52291;BME280;39663;45.432;28.050;2022-09-09T01:39:01;101322.26;;;26.10;33.17
52291;BME280;39663;45.432;28.050;2022-09-09T01:39:33;101320.92;;;26.08;33.17
52291;BME280;39663;45.432;28.050;2022-09-09T01:40:07;101319.86;;;26.14;33.15
52291;BME280;39663;45.432;28.050;2022-09-09T01:40:38;101316.94;;;26.14;33.09
52291;BME280;39663;45.432;28.050;2022-09-09T01:41:10;101314.65;;;26.11;33.10
52291;BME280;39663;45.432;28.050;2022-09-09T01:41:41;101320.96;;;26.18;33.19
52291;BME280;39663;45.432;28.050;2022-09-09T01:42:15;101320.55;;;26.00;33.19
52291;BME280;39663;45.432;28.050;2022-09-09T01:42:47;101316.24;;;26.09;33.02
52291;BME280;39663;45.432;28.050;2022-09-09T01:43:20;101315.37;;;26.20;32.93
52291;BME280;39663;45.432;28.050;2022-09-09T01:43:54;101316.50;;;26.16;32.97
52291;BME280;39663;45.432;28.050;2022-09-09T01:44:27;101316.99;;;26.20;32.87
52291;BME280;39663;45.432;28.050;2022-09-09T01:44:59;101320.80;;;25.97;32.95
52291;BME280;39663;45.432;28.050;2022-09-09T01:45:31;101322.87;;;25.94;33.05
52291;BME280;39663;45.432;28.050;2022-09-09T01:46:02;101324.36;;;25.92;33.05
52291;BME280;39663;45.432;28.050;2022-09-09T01:46:34;101327.02;;;25.91;33.05
52291;BME280;39663;45.432;28.050;2022-09-09T01:47:06;101325.64;;;25.94;33.08
52291;BME280;39663;45.432;28.050;2022-09-09T01:47:37;101326.62;;;25.99;33.04
52291;BME280;39663;45.432;28.050;2022-09-09T01:48:09;101321.60;;;26.10;32.99
52291;BME280;39663;45.432;28.050;2022-09-09T01:48:41;101326.79;;;25.94;33.08
52291;BME280;39663;45.432;28.050;2022-09-09T01:49:14;101322.06;;;26.05;33.04
52291;BME280;39663;45.432;28.050;2022-09-09T01:49:47;101324.70;;;25.83;33.27
52291;BME280;39663;45.432;28.050;2022-09-09T01:50:19;101324.07;;;25.77;33.36
52291;BME280;39663;45.432;28.050;2022-09-09T01:50:51;101321.04;;;25.76;33.33
52291;BME280;39663;45.432;28.050;2022-09-09T01:51:23;101321.78;;;25.97;33.27
52291;BME280;39663;45.432;28.050;2022-09-09T01:51:56;101319.78;;;25.95;33.08
52291;BME280;39663;45.432;28.050;2022-09-09T01:52:28;101320.23;;;25.97;33.16
52291;BME280;39663;45.432;28.050;2022-09-09T01:53:01;101320.77;;;25.68;33.36
52291;BME280;39663;45.432;28.050;2022-09-09T01:53:34;101321.52;;;25.69;33.31
52291;BME280;39663;45.432;28.050;2022-09-09T01:54:06;101322.09;;;26.08;33.26
52291;BME280;39663;45.432;28.050;2022-09-09T01:54:38;101323.41;;;26.08;33.06
52291;BME280;39663;45.432;28.050;2022-09-09T01:55:10;101324.80;;;26.06;33.02
52291;BME280;39663;45.432;28.050;2022-09-09T01:55:45;101327.26;;;25.81;33.13
52291;BME280;39663;45.432;28.050;2022-09-09T01:56:31;101327.53;;;25.60;33.52
52291;BME280;39663;45.432;28.050;2022-09-09T01:57:11;101327.13;;;25.65;33.36
52291;BME280;39663;45.432;28.050;2022-09-09T01:57:53;101326.07;;;25.65;33.29
52291;BME280;39663;45.432;28.050;2022-09-09T01:58:34;101325.88;;;25.83;33.30
52291;BME280;39663;45.432;28.050;2022-09-09T01:59:20;101327.91;;;25.78;33.17
52291;BME280;39663;45.432;28.050;2022-09-09T02:00:02;101327.86;;;25.68;33.25
52291;BME280;39663;45.432;28.050;2022-09-09T02:00:39;101325.12;;;25.69;33.21
52291;BME280;39663;45.432;28.050;2022-09-09T02:01:22;101325.61;;;25.88;33.26
52291;BME280;39663;45.432;28.050;2022-09-09T02:02:08;101327.29;;;26.24;33.08
52291;BME280;39663;45.432;28.050;2022-09-09T02:02:47;101325.60;;;25.57;33.52
52291;BME280;39663;45.432;28.050;2022-09-09T02:03:25;101326.15;;;25.57;33.41
52291;BME280;39663;45.432;28.050;2022-09-09T02:03:59;101325.85;;;25.64;33.30
52291;BME280;39663;45.432;28.050;2022-09-09T02:04:38;101321.93;;;25.89;33.32
52291;BME280;39663;45.432;28.050;2022-09-09T02:05:17;101323.30;;;25.79;33.15
52291;BME280;39663;45.432;28.050;2022-09-09T02:05:59;101324.13;;;25.73;33.23
52291;BME280;39663;45.432;28.050;2022-09-09T02:06:36;101321.72;;;25.97;33.27
52291;BME280;39663;45.432;28.050;2022-09-09T02:07:21;101322.48;;;25.70;33.26
52291;BME280;39663;45.432;28.050;2022-09-09T02:07:59;101322.47;;;25.72;33.57
52291;BME280;39663;45.432;28.050;2022-09-09T02:08:41;101323.16;;;25.62;33.40
52291;BME280;39663;45.432;28.050;2022-09-09T02:09:15;101323.12;;;25.54;33.50
52291;BME280;39663;45.432;28.050;2022-09-09T02:09:55;101324.39;;;25.56;33.55
52291;BME280;39663;45.432;28.050;2022-09-09T02:10:32;101324.81;;;25.48;33.71
52291;BME280;39663;45.432;28.050;2022-09-09T02:11:07;101324.91;;;25.98;33.41
52291;BME280;39663;45.432;28.050;2022-09-09T02:11:42;101324.71;;;25.66;33.51
52291;BME280;39663;45.432;28.050;2022-09-09T02:12:18;101323.79;;;25.65;33.38
52291;BME280;39663;45.432;28.050;2022-09-09T02:12:59;101325.03;;;25.87;33.63
52291;BME280;39663;45.432;28.050;2022-09-09T02:13:36;101326.72;;;25.56;33.56
52291;BME280;39663;45.432;28.050;2022-09-09T02:14:12;101323.17;;;25.76;33.50
52291;BME280;39663;45.432;28.050;2022-09-09T02:14:50;101320.63;;;25.73;33.30
52291;BME280;39663;45.432;28.050;2022-09-09T02:15:28;101321.81;;;26.00;33.29
52291;BME280;39663;45.432;28.050;2022-09-09T02:16:07;101321.19;;;25.67;33.29
52291;BME280;39663;45.432;28.050;2022-09-09T02:16:44;101320.19;;;25.77;33.36
52291;BME280;39663;45.432;28.050;2022-09-09T02:17:22;101320.69;;;25.77;33.24
52291;BME280;39663;45.432;28.050;2022-09-09T02:17:58;101319.69;;;25.82;33.26
52291;BME280;39663;45.432;28.050;2022-09-09T02:18:37;101319.91;;;25.73;33.33
52291;BME280;39663;45.432;28.050;2022-09-09T02:19:13;101320.44;;;25.59;33.34
52291;BME280;39663;45.432;28.050;2022-09-09T02:19:49;101322.29;;;25.69;33.20
52291;BME280;39663;45.432;28.050;2022-09-09T02:20:25;101320.93;;;25.68;33.20
52291;BME280;39663;45.432;28.050;2022-09-09T02:20:58;101319.80;;;25.68;33.25
52291;BME280;39663;45.432;28.050;2022-09-09T02:21:31;101315.90;;;25.80;33.24
52291;BME280;39663;45.432;28.050;2022-09-09T02:22:04;101317.36;;;25.65;33.19
52291;BME280;39663;45.432;28.050;2022-09-09T02:22:38;101319.56;;;25.99;33.30
52291;BME280;39663;45.432;28.050;2022-09-09T02:23:11;101317.91;;;25.61;33.11
52291;BME280;39663;45.432;28.050;2022-09-09T02:23:46;101317.88;;;25.57;33.25
52291;BME280;39663;45.432;28.050;2022-09-09T02:24:19;101319.77;;;25.70;33.12
52291;BME280;39663;45.432;28.050;2022-09-09T02:24:52;101319.59;;;25.55;33.27
52291;BME280;39663;45.432;28.050;2022-09-09T02:25:28;101320.23;;;25.58;33.28
52291;BME280;39663;45.432;28.050;2022-09-09T02:26:00;101323.38;;;25.70;33.41
52291;BME280;39663;45.432;28.050;2022-09-09T02:26:34;101321.19;;;25.74;33.40
52291;BME280;39663;45.432;28.050;2022-09-09T02:27:09;101321.93;;;25.64;33.28
52291;BME280;39663;45.432;28.050;2022-09-09T02:27:44;101319.71;;;25.67;33.51
52291;BME280;39663;45.432;28.050;2022-09-09T02:28:17;101320.45;;;25.65;33.51
52291;BME280;39663;45.432;28.050;2022-09-09T02:28:52;101321.70;;;25.81;33.46
52291;BME280;39663;45.432;28.050;2022-09-09T02:29:26;101319.80;;;25.76;33.48
52291;BME280;39663;45.432;28.050;2022-09-09T02:30:00;101317.29;;;25.79;33.49
52291;BME280;39663;45.432;28.050;2022-09-09T02:30:34;101318.97;;;25.78;33.34
52291;BME280;39663;45.432;28.050;2022-09-09T02:31:06;101317.19;;;25.67;33.25
52291;BME280;39663;45.432;28.050;2022-09-09T02:31:38;101317.46;;;25.89;33.13
52291;BME280;39663;45.432;28.050;2022-09-09T02:32:14;101318.12;;;25.96;33.04
52291;BME280;39663;45.432;28.050;2022-09-09T02:32:49;101318.65;;;26.19;33.00
52291;BME280;39663;45.432;28.050;2022-09-09T02:33:26;101318.57;;;25.79;33.35
52291;BME280;39663;45.432;28.050;2022-09-09T02:34:00;101318.53;;;25.57;33.33
52291;BME280;39663;45.432;28.050;2022-09-09T02:34:36;101319.73;;;25.74;33.05
52291;BME280;39663;45.432;28.050;2022-09-09T02:35:13;101322.62;;;25.71;33.09
52291;BME280;39663;45.432;28.050;2022-09-09T02:35:46;101322.14;;;25.85;33.11
52291;BME280;39663;45.432;28.050;2022-09-09T02:36:18;101322.53;;;25.78;33.17
52291;BME280;39663;45.432;28.050;2022-09-09T02:36:51;101322.18;;;26.00;33.03
52291;BME280;39663;45.432;28.050;2022-09-09T02:37:27;101320.21;;;25.83;33.03
52291;BME280;39663;45.432;28.050;2022-09-09T02:38:05;101317.65;;;25.79;33.09
52291;BME280;39663;45.432;28.050;2022-09-09T02:38:44;101315.86;;;25.62;33.19
52291;BME280;39663;45.432;28.050;2022-09-09T02:39:16;101315.39;;;25.74;33.01
52291;BME280;39663;45.432;28.050;2022-09-09T02:39:48;101310.93;;;26.10;32.94
52291;BME280;39663;45.432;28.050;2022-09-09T02:40:20;101312.75;;;25.60;33.10
52291;BME280;39663;45.432;28.050;2022-09-09T02:40:51;101310.46;;;25.66;33.09
52291;BME280;39663;45.432;28.050;2022-09-09T02:41:27;101308.19;;;25.55;33.20
52291;BME280;39663;45.432;28.050;2022-09-09T02:42:03;101309.07;;;25.84;33.10
52291;BME280;39663;45.432;28.050;2022-09-09T02:42:39;101309.22;;;25.64;33.27
52291;BME280;39663;45.432;28.050;2022-09-09T02:43:11;101310.95;;;25.53;33.35
52291;BME280;39663;45.432;28.050;2022-09-09T02:43:42;101310.20;;;25.71;33.30
52291;BME280;39663;45.432;28.050;2022-09-09T02:44:16;101313.09;;;25.58;33.54
52291;BME280;39663;45.432;28.050;2022-09-09T02:44:48;101311.48;;;25.66;33.45
52291;BME280;39663;45.432;28.050;2022-09-09T02:45:24;101313.41;;;25.68;33.31
52291;BME280;39663;45.432;28.050;2022-09-09T02:46:01;101315.54;;;25.37;33.40
52291;BME280;39663;45.432;28.050;2022-09-09T02:46:47;101315.87;;;25.65;33.43
52291;BME280;39663;45.432;28.050;2022-09-09T02:47:28;101316.23;;;25.65;33.33
52291;BME280;39663;45.432;28.050;2022-09-09T02:48:08;101315.66;;;25.55;33.30
52291;BME280;39663;45.432;28.050;2022-09-09T02:48:51;101314.14;;;25.32;33.44
52291;BME280;39663;45.432;28.050;2022-09-09T02:49:31;101314.46;;;25.80;33.19
52291;BME280;39663;45.432;28.050;2022-09-09T02:50:11;101314.02;;;25.66;33.31
52291;BME280;39663;45.432;28.050;2022-09-09T02:50:52;101316.38;;;25.72;33.20
52291;BME280;39663;45.432;28.050;2022-09-09T02:51:33;101314.78;;;25.44;33.30
52291;BME280;39663;45.432;28.050;2022-09-09T02:52:08;101312.33;;;25.50;33.45
52291;BME280;39663;45.432;28.050;2022-09-09T02:52:48;101311.57;;;25.46;33.49
52291;BME280;39663;45.432;28.050;2022-09-09T02:53:27;101311.84;;;25.73;33.45
52291;BME280;39663;45.432;28.050;2022-09-09T02:54:12;101310.53;;;25.32;33.59
52291;BME280;39663;45.432;28.050;2022-09-09T02:54:50;101308.65;;;25.33;33.48
52291;BME280;39663;45.432;28.050;2022-09-09T02:55:32;101310.31;;;25.35;33.52
52291;BME280;39663;45.432;28.050;2022-09-09T02:56:09;101309.72;;;25.46;33.39
52291;BME280;39663;45.432;28.050;2022-09-09T02:56:49;101311.95;;;25.71;33.67
52291;BME280;39663;45.432;28.050;2022-09-09T02:57:25;101311.18;;;25.24;33.68
52291;BME280;39663;45.432;28.050;2022-09-09T02:57:59;101310.13;;;25.45;33.73
52291;BME280;39663;45.432;28.050;2022-09-09T02:58:33;101309.85;;;25.21;33.59
52291;BME280;39663;45.432;28.050;2022-09-09T02:59:05;101308.22;;;25.36;33.70
52291;BME280;39663;45.432;28.050;2022-09-09T02:59:37;101313.18;;;25.40;33.89
52291;BME280;39663;45.432;28.050;2022-09-09T03:00:10;101314.03;;;25.21;33.80
52291;BME280;39663;45.432;28.050;2022-09-09T03:00:42;101311.44;;;25.44;33.60
52291;BME280;39663;45.432;28.050;2022-09-09T03:01:14;101312.32;;;25.58;33.44
52291;BME280;39663;45.432;28.050;2022-09-09T03:01:46;101312.28;;;25.86;33.39
52291;BME280;39663;45.432;28.050;2022-09-09T03:02:17;101311.53;;;25.51;33.22
52291;BME280;39663;45.432;28.050;2022-09-09T03:02:49;101312.16;;;25.53;33.38
52291;BME280;39663;45.432;28.050;2022-09-09T03:03:20;101310.57;;;25.48;33.53
52291;BME280;39663;45.432;28.050;2022-09-09T03:03:51;101311.26;;;25.41;33.48
52291;BME280;39663;45.432;28.050;2022-09-09T03:04:23;101311.24;;;25.78;33.43
52291;BME280;39663;45.432;28.050;2022-09-09T03:04:54;101311.95;;;25.53;33.51
52291;BME280;39663;45.432;28.050;2022-09-09T03:05:26;101314.18;;;25.82;33.42
52291;BME280;39663;45.432;28.050;2022-09-09T03:05:57;101311.35;;;25.74;33.18
52291;BME280;39663;45.432;28.050;2022-09-09T03:06:29;101311.91;;;25.62;33.34
52291;BME280;39663;45.432;28.050;2022-09-09T03:07:00;101313.55;;;25.38;33.38
52291;BME280;39663;45.432;28.050;2022-09-09T03:07:31;101308.07;;;25.34;33.65
52291;BME280;39663;45.432;28.050;2022-09-09T03:08:04;101311.29;;;25.36;33.62
52291;BME280;39663;45.432;28.050;2022-09-09T03:08:35;101311.15;;;25.46;33.58
52291;BME280;39663;45.432;28.050;2022-09-09T03:09:07;101313.22;;;25.41;33.61
52291;BME280;39663;45.432;28.050;2022-09-09T03:09:38;101316.65;;;25.14;33.61
52291;BME280;39663;45.432;28.050;2022-09-09T03:10:10;101315.24;;;25.32;33.40
52291;BME280;39663;45.432;28.050;2022-09-09T03:10:41;101317.46;;;25.74;33.35
52291;BME280;39663;45.432;28.050;2022-09-09T03:11:13;101315.56;;;25.50;33.51
52291;BME280;39663;45.432;28.050;2022-09-09T03:11:44;101319.10;;;25.37;33.38
52291;BME280;39663;45.432;28.050;2022-09-09T03:12:15;101318.19;;;25.29;33.49
52291;BME280;39663;45.432;28.050;2022-09-09T03:12:47;101316.12;;;25.34;33.56
52291;BME280;39663;45.432;28.050;2022-09-09T03:13:18;101319.97;;;25.45;33.57
52291;BME280;39663;45.432;28.050;2022-09-09T03:13:50;101317.95;;;25.60;33.57
52291;BME280;39663;45.432;28.050;2022-09-09T03:14:21;101317.46;;;25.71;33.48
52291;BME280;39663;45.432;28.050;2022-09-09T03:14:53;101319.29;;;25.79;33.43
52291;BME280;39663;45.432;28.050;2022-09-09T03:15:24;101320.04;;;25.82;33.39
52291;BME280;39663;45.432;28.050;2022-09-09T03:15:56;101322.64;;;25.75;33.32
52291;BME280;39663;45.432;28.050;2022-09-09T03:16:27;101318.95;;;25.92;33.34
52291;BME280;39663;45.432;28.050;2022-09-09T03:16:58;101319.01;;;25.78;33.16
52291;BME280;39663;45.432;28.050;2022-09-09T03:17:30;101318.95;;;25.52;33.44